Time;durP1;ratioP1;P1;durP2;ratioP2;P2;SDS_P1;SDS_P2;PMS_P1;PMS_P2;Temp;Humidity;BMP_temperature;BMP_pressure;BME280_temperature;BME280_humidity;BME280_pressure;Samples;Min_cycle;Max_cycle;Signal;HPM_P1;HPM_P2
2024/01/18 00:00:09;;;;;;;15.07;5.80;;;;;;;;;;5050741;28;20059;-53
2024/01/18 00:02:36;;;;;;;14.85;5.60;;;;;;;;;;5064185;28;20114;-56
2024/01/18 00:05:03;;;;;;;18.73;6.95;;;;;;;;;;5049876;28;20048;-57
2024/01/18 00:07:30;;;;;;;16.02;6.78;;;;;;;;;;5025573;28;20049;-57
2024/01/18 00:10:07;;;;;;;15.87;6.90;;;;;;;;;;5047663;28;20053;-53
2024/01/18 00:12:42;;;;;;;15.90;6.20;;;;;;;;;;5046240;28;20055;-56
2024/01/18 00:15:09;;;;;;;16.33;6.65;;;;;;;;;;5047776;28;20053;-55
2024/01/18 00:17:37;;;;;;;15.95;5.93;;;;;;;;;;5012930;28;20049;-54
2024/01/18 00:20:04;;;;;;;18.17;6.28;;;;;;;;;;5024947;28;20041;-57
2024/01/18 00:22:31;;;;;;;18.02;6.75;;;;;;;;;;5038922;28;20168;-54
2024/01/18 00:24:58;;;;;;;12.52;5.63;;;;;;;;;;5035709;28;20220;-57
2024/01/18 00:27:25;;;;;;;14.20;6.38;;;;;;;;;;5025735;28;20057;-54
2024/01/18 00:29:53;;;;;;;17.20;7.18;;;;;;;;;;5037261;28;20056;-56
2024/01/18 00:32:20;;;;;;;13.38;6.55;;;;;;;;;;5030017;28;20182;-57
2024/01/18 00:34:47;;;;;;;21.00;8.05;;;;;;;;;;5037479;28;20805;-56
2024/01/18 00:37:14;;;;;;;17.30;7.40;;;;;;;;;;5027193;28;20061;-56
2024/01/18 00:39:41;;;;;;;15.80;7.45;;;;;;;;;;5035673;28;20069;-57
2024/01/18 00:42:08;;;;;;;18.30;6.50;;;;;;;;;;5029858;28;20123;-57
2024/01/18 00:44:37;;;;;;;16.35;6.22;;;;;;;;;;5027812;28;20070;-56
2024/01/18 00:47:05;;;;;;;14.95;6.65;;;;;;;;;;4997331;28;20048;-56
2024/01/18 00:49:33;;;;;;;16.13;6.80;;;;;;;;;;5006870;28;20103;-57
2024/01/18 00:52:01;;;;;;;14.38;6.90;;;;;;;;;;5009422;28;20045;-57
2024/01/18 00:54:28;;;;;;;17.73;6.03;;;;;;;;;;5014985;28;20049;-57
2024/01/18 00:56:55;;;;;;;13.13;6.00;;;;;;;;;;5038513;28;20153;-55
2024/01/18 00:59:21;;;;;;;17.83;5.85;;;;;;;;;;5029704;28;20056;-57
2024/01/18 01:01:48;;;;;;;16.77;7.25;;;;;;;;;;5034454;28;20077;-56
2024/01/18 01:04:17;;;;;;;16.55;6.47;;;;;;;;;;5033942;28;20068;-54
2024/01/18 01:06:45;;;;;;;16.45;6.93;;;;;;;;;;5021845;28;20048;-56
2024/01/18 01:09:12;;;;;;;13.82;6.85;;;;;;;;;;5034013;28;20181;-54
2024/01/18 01:11:42;;;;;;;14.82;6.53;;;;;;;;;;5037106;28;20072;-54
2024/01/18 01:14:09;;;;;;;14.70;6.55;;;;;;;;;;5022777;28;20045;-53
2024/01/18 01:16:35;;;;;;;14.10;5.78;;;;;;;;;;5003308;28;20099;-53
2024/01/18 01:19:04;;;;;;;14.40;6.20;;;;;;;;;;5027858;28;20064;-54
2024/01/18 01:21:33;;;;;;;19.55;6.65;;;;;;;;;;5030486;28;20053;-54
2024/01/18 01:23:59;;;;;;;13.70;6.13;;;;;;;;;;5029129;28;20049;-55
2024/01/18 01:26:26;;;;;;;13.40;6.53;;;;;;;;;;5007754;28;20102;-53
2024/01/18 01:28:53;;;;;;;18.17;6.47;;;;;;;;;;5037301;28;20084;-56
2024/01/18 01:31:22;;;;;;;15.93;6.60;;;;;;;;;;5035155;28;20052;-53
2024/01/18 01:33:50;;;;;;;15.35;6.25;;;;;;;;;;5030784;28;20107;-55
2024/01/18 01:36:17;;;;;;;12.48;6.60;;;;;;;;;;5020607;28;20190;-49
2024/01/18 01:38:45;;;;;;;14.35;6.47;;;;;;;;;;5027401;28;20049;-55
2024/01/18 01:41:11;;;;;;;15.82;6.05;;;;;;;;;;5033170;28;20049;-52
2024/01/18 01:43:58;;;;;;;15.45;6.40;;;;;;;;;;5044344;28;20142;-49
2024/01/18 01:46:28;;;;;;;14.73;6.30;;;;;;;;;;5017558;28;20057;-54
2024/01/18 01:49:00;;;;;;;13.88;5.57;;;;;;;;;;5025257;28;20041;-55
2024/01/18 01:51:28;;;;;;;15.52;5.88;;;;;;;;;;5029435;28;20053;-54
2024/01/18 01:53:57;;;;;;;11.40;5.43;;;;;;;;;;5028162;28;20064;-55
2024/01/18 01:56:25;;;;;;;13.13;5.95;;;;;;;;;;5021217;28;20053;-54
2024/01/18 01:58:52;;;;;;;15.75;5.93;;;;;;;;;;5032094;28;20053;-55
2024/01/18 02:01:19;;;;;;;17.02;6.97;;;;;;;;;;5033441;28;20072;-55
2024/01/18 02:03:45;;;;;;;11.48;5.38;;;;;;;;;;5022399;28;20056;-54
2024/01/18 02:06:14;;;;;;;14.10;5.55;;;;;;;;;;5016417;28;20241;-54
2024/01/18 02:08:40;;;;;;;12.10;5.70;;;;;;;;;;5028277;28;20076;-55
2024/01/18 02:11:09;;;;;;;16.08;6.13;;;;;;;;;;5042598;28;20561;-55
2024/01/18 02:13:38;;;;;;;11.68;5.45;;;;;;;;;;5023238;28;20163;-51
2024/01/18 02:16:06;;;;;;;11.63;5.70;;;;;;;;;;5014433;28;20169;-53
2024/01/18 02:18:35;;;;;;;16.45;5.68;;;;;;;;;;5041611;28;20118;-54
2024/01/18 02:21:01;;;;;;;16.92;6.47;;;;;;;;;;5034557;28;20048;-54
2024/01/18 02:23:30;;;;;;;12.85;6.35;;;;;;;;;;5016963;28;20041;-54
2024/01/18 02:26:00;;;;;;;13.35;6.00;;;;;;;;;;5006658;28;20065;-57
2024/01/18 02:28:26;;;;;;;12.40;5.78;;;;;;;;;;5018192;28;20060;-53
2024/01/18 02:30:53;;;;;;;19.77;6.13;;;;;;;;;;5030578;28;20056;-51
2024/01/18 02:33:20;;;;;;;13.30;5.55;;;;;;;;;;5032940;28;20049;-52
2024/01/18 02:35:47;;;;;;;13.63;5.60;;;;;;;;;;5026176;28;20455;-51
2024/01/18 02:38:14;;;;;;;14.95;6.30;;;;;;;;;;5022430;28;20053;-53
2024/01/18 02:40:42;;;;;;;15.43;6.20;;;;;;;;;;5034189;28;20107;-54
2024/01/18 02:43:10;;;;;;;13.57;5.93;;;;;;;;;;5029772;28;20057;-54
2024/01/18 02:45:37;;;;;;;10.68;5.47;;;;;;;;;;5030901;28;20056;-51
2024/01/18 02:48:05;;;;;;;17.98;6.45;;;;;;;;;;4996138;28;20040;-54
2024/01/18 02:50:32;;;;;;;11.73;4.90;;;;;;;;;;5021400;28;20060;-50
2024/01/18 02:52:59;;;;;;;16.40;5.93;;;;;;;;;;5032972;28;20072;-54
2024/01/18 02:55:25;;;;;;;13.65;5.75;;;;;;;;;;5032277;28;20152;-53
2024/01/18 02:57:53;;;;;;;11.45;5.10;;;;;;;;;;5012411;28;20048;-57
2024/01/18 03:00:22;;;;;;;15.07;5.30;;;;;;;;;;5018676;28;20126;-53
2024/01/18 03:02:48;;;;;;;12.68;5.70;;;;;;;;;;5048531;28;20057;-55
2024/01/18 03:05:15;;;;;;;13.27;5.57;;;;;;;;;;4992064;28;20136;-55
2024/01/18 03:07:51;;;;;;;13.60;5.50;;;;;;;;;;5031163;28;20064;-54
2024/01/18 03:10:17;;;;;;;11.90;5.97;;;;;;;;;;5019362;28;20053;-52
2024/01/18 03:12:44;;;;;;;14.13;6.13;;;;;;;;;;5024080;28;20045;-52
2024/01/18 03:15:11;;;;;;;11.85;5.40;;;;;;;;;;4999333;28;20120;-53
2024/01/18 03:17:39;;;;;;;13.82;5.30;;;;;;;;;;5023487;28;20081;-54
2024/01/18 03:20:08;;;;;;;13.30;5.40;;;;;;;;;;5010550;28;20135;-52
2024/01/18 03:22:39;;;;;;;13.93;5.78;;;;;;;;;;5038370;28;20049;-51
2024/01/18 03:25:06;;;;;;;16.63;6.38;;;;;;;;;;5014255;28;20057;-52
2024/01/18 03:27:33;;;;;;;11.60;5.22;;;;;;;;;;5040833;28;20053;-53
2024/01/18 03:30:00;;;;;;;12.75;4.93;;;;;;;;;;5024014;28;20107;-53
2024/01/18 03:32:26;;;;;;;14.75;5.80;;;;;;;;;;5027602;28;20054;-49
2024/01/18 03:34:56;;;;;;;16.63;6.05;;;;;;;;;;5026709;28;20045;-50
2024/01/18 03:37:23;;;;;;;16.33;5.82;;;;;;;;;;5037119;28;20258;-51
2024/01/18 03:39:49;;;;;;;16.45;5.95;;;;;;;;;;5029313;28;20098;-49
2024/01/18 03:42:16;;;;;;;13.52;5.75;;;;;;;;;;5028860;28;20496;-53
2024/01/18 03:44:43;;;;;;;13.45;5.97;;;;;;;;;;5033567;28;20053;-54
2024/01/18 03:47:09;;;;;;;15.18;5.47;;;;;;;;;;5030571;28;20115;-55
2024/01/18 03:49:39;;;;;;;13.38;5.65;;;;;;;;;;5036330;28;20037;-51
2024/01/18 03:52:07;;;;;;;13.68;5.95;;;;;;;;;;5027283;28;20091;-53
2024/01/18 03:54:33;;;;;;;11.90;5.25;;;;;;;;;;4998078;28;20053;-51
2024/01/18 03:57:00;;;;;;;20.05;5.25;;;;;;;;;;5025670;28;20046;-51
2024/01/18 03:59:27;;;;;;;16.25;5.80;;;;;;;;;;5025156;28;20128;-56
2024/01/18 04:01:54;;;;;;;12.88;5.05;;;;;;;;;;5029992;28;20104;-54
2024/01/18 04:04:23;;;;;;;16.23;5.28;;;;;;;;;;5033295;28;20068;-54
2024/01/18 04:06:50;;;;;;;11.82;5.18;;;;;;;;;;5029594;28;20057;-52
2024/01/18 04:09:18;;;;;;;10.93;5.18;;;;;;;;;;5021780;28;20080;-50
2024/01/18 04:11:46;;;;;;;12.05;4.95;;;;;;;;;;5034048;28;20083;-55
2024/01/18 04:14:13;;;;;;;13.90;5.40;;;;;;;;;;5017228;28;20063;-53
2024/01/18 04:16:42;;;;;;;18.10;5.25;;;;;;;;;;5018286;28;20049;-54
2024/01/18 04:19:08;;;;;;;10.70;4.70;;;;;;;;;;5035406;28;20053;-52
2024/01/18 04:21:35;;;;;;;11.40;5.47;;;;;;;;;;5036409;28;20059;-50
2024/01/18 04:24:02;;;;;;;12.65;4.88;;;;;;;;;;5022525;28;20053;-53
2024/01/18 04:26:33;;;;;;;13.63;5.63;;;;;;;;;;5043575;28;20063;-55
2024/01/18 04:29:00;;;;;;;11.00;4.95;;;;;;;;;;5022271;28;20050;-52
2024/01/18 04:31:27;;;;;;;12.50;4.72;;;;;;;;;;5037114;28;20049;-52
2024/01/18 04:33:57;;;;;;;10.02;4.97;;;;;;;;;;5034851;28;20073;-50
2024/01/18 04:36:23;;;;;;;11.43;5.50;;;;;;;;;;5035366;28;20132;-54
2024/01/18 04:38:52;;;;;;;10.90;5.22;;;;;;;;;;5037373;28;20496;-53
2024/01/18 04:41:19;;;;;;;11.85;4.75;;;;;;;;;;5035173;28;20045;-57
2024/01/18 04:43:47;;;;;;;11.98;4.50;;;;;;;;;;5025221;28;20056;-52
2024/01/18 04:46:14;;;;;;;10.20;4.32;;;;;;;;;;5029118;28;20053;-50
2024/01/18 04:48:44;;;;;;;10.68;4.28;;;;;;;;;;5032365;28;20143;-54
2024/01/18 04:51:12;;;;;;;12.55;5.45;;;;;;;;;;5035068;28;20180;-51
2024/01/18 04:53:39;;;;;;;11.40;5.07;;;;;;;;;;5031850;28;20114;-54
2024/01/18 04:56:06;;;;;;;14.48;4.65;;;;;;;;;;5026855;28;20056;-52
2024/01/18 04:58:36;;;;;;;11.65;5.15;;;;;;;;;;5046223;28;20118;-56
2024/01/18 05:01:05;;;;;;;11.00;4.35;;;;;;;;;;5043166;28;20053;-55
2024/01/18 05:03:32;;;;;;;10.65;4.63;;;;;;;;;;5022616;28;20133;-55
2024/01/18 05:05:59;;;;;;;12.40;5.15;;;;;;;;;;5011784;28;20100;-55
2024/01/18 05:08:29;;;;;;;22.13;8.63;;;;;;;;;;5018967;28;20057;-53
2024/01/18 05:10:56;;;;;;;23.42;9.68;;;;;;;;;;5015474;28;20087;-52
2024/01/18 05:13:23;;;;;;;28.50;10.85;;;;;;;;;;5032846;28;20071;-53
2024/01/18 05:15:51;;;;;;;21.08;6.30;;;;;;;;;;4998930;28;20049;-54
2024/01/18 05:18:20;;;;;;;10.98;5.35;;;;;;;;;;5034590;28;20064;-56
2024/01/18 05:20:48;;;;;;;10.30;4.40;;;;;;;;;;5021290;28;20049;-53
2024/01/18 05:23:14;;;;;;;15.15;6.47;;;;;;;;;;5034613;28;20080;-54
2024/01/18 05:25:43;;;;;;;16.60;7.78;;;;;;;;;;5018695;28;20056;-58
2024/01/18 05:28:11;;;;;;;17.05;6.57;;;;;;;;;;5019003;28;20041;-52
2024/01/18 05:30:38;;;;;;;13.05;6.88;;;;;;;;;;5052363;28;20079;-54
2024/01/18 05:33:05;;;;;;;12.07;5.88;;;;;;;;;;5017661;28;21072;-53
2024/01/18 05:35:33;;;;;;;7.22;3.58;;;;;;;;;;5022715;28;20127;-55
2024/01/18 05:38:00;;;;;;;12.40;5.28;;;;;;;;;;5030190;28;20041;-52
2024/01/18 05:40:27;;;;;;;11.13;4.50;;;;;;;;;;5034147;28;20045;-54
2024/01/18 05:42:54;;;;;;;13.73;4.68;;;;;;;;;;5057229;28;20046;-52
2024/01/18 05:45:20;;;;;;;12.73;4.43;;;;;;;;;;5022028;28;20089;-51
2024/01/18 05:47:47;;;;;;;12.93;4.72;;;;;;;;;;5027778;28;20053;-53
2024/01/18 05:50:14;;;;;;;9.77;4.35;;;;;;;;;;5041245;28;20060;-54
2024/01/18 05:52:42;;;;;;;12.15;4.63;;;;;;;;;;5024066;28;20148;-51
2024/01/18 05:55:10;;;;;;;10.45;4.50;;;;;;;;;;5037640;28;20076;-54
2024/01/18 05:57:37;;;;;;;10.43;5.00;;;;;;;;;;5028174;28;20056;-53
2024/01/18 06:00:05;;;;;;;15.35;5.43;;;;;;;;;;5017555;28;20049;-51
2024/01/18 06:02:35;;;;;;;10.38;4.47;;;;;;;;;;5029474;28;20044;-52
2024/01/18 06:05:02;;;;;;;12.38;4.75;;;;;;;;;;5025971;28;20143;-52
2024/01/18 06:07:29;;;;;;;12.25;4.70;;;;;;;;;;5029252;28;20115;-50
2024/01/18 06:09:59;;;;;;;12.38;4.45;;;;;;;;;;5021184;28;20128;-52
2024/01/18 06:12:26;;;;;;;13.02;4.80;;;;;;;;;;5030788;28;20120;-52
2024/01/18 06:14:53;;;;;;;13.40;5.35;;;;;;;;;;5027324;28;20055;-51
2024/01/18 06:17:22;;;;;;;13.55;5.45;;;;;;;;;;5024952;28;20053;-51
2024/01/18 06:19:55;;;;;;;12.25;5.22;;;;;;;;;;5019502;28;20050;-53
2024/01/18 06:22:22;;;;;;;12.50;5.45;;;;;;;;;;5031694;28;20088;-53
2024/01/18 06:24:49;;;;;;;11.75;5.05;;;;;;;;;;5025319;28;20045;-55
2024/01/18 06:27:17;;;;;;;13.18;6.38;;;;;;;;;;5030909;28;20080;-54
2024/01/18 06:29:45;;;;;;;20.92;9.55;;;;;;;;;;5031625;28;20194;-57
2024/01/18 06:32:12;;;;;;;22.52;9.98;;;;;;;;;;5025325;28;20140;-55
2024/01/18 06:34:39;;;;;;;19.58;8.75;;;;;;;;;;5013859;28;20048;-56
2024/01/18 06:37:05;;;;;;;16.98;6.97;;;;;;;;;;5027446;28;20141;-55
2024/01/18 06:39:32;;;;;;;14.05;5.20;;;;;;;;;;5024669;28;20052;-54
2024/01/18 06:41:59;;;;;;;13.38;5.03;;;;;;;;;;5024219;28;20131;-55
2024/01/18 06:44:28;;;;;;;11.82;4.43;;;;;;;;;;5022150;28;20072;-56
2024/01/18 06:46:57;;;;;;;10.82;3.95;;;;;;;;;;5023292;28;20057;-51
2024/01/18 06:49:24;;;;;;;17.02;4.88;;;;;;;;;;5030392;28;20047;-52
2024/01/18 06:51:51;;;;;;;14.38;4.65;;;;;;;;;;5027074;28;20053;-55
2024/01/18 06:54:21;;;;;;;11.02;4.78;;;;;;;;;;5027299;28;20133;-55
2024/01/18 06:56:48;;;;;;;12.10;4.70;;;;;;;;;;5034454;28;21247;-53
2024/01/18 06:59:15;;;;;;;12.65;4.70;;;;;;;;;;5026079;28;20049;-53
2024/01/18 07:01:44;;;;;;;11.27;4.93;;;;;;;;;;5031356;28;20059;-55
2024/01/18 07:04:13;;;;;;;9.77;4.55;;;;;;;;;;5028375;28;20057;-52
2024/01/18 07:06:39;;;;;;;12.40;4.25;;;;;;;;;;5029986;28;20077;-52
2024/01/18 07:09:07;;;;;;;13.40;4.45;;;;;;;;;;5022270;28;20053;-51
2024/01/18 07:11:34;;;;;;;15.30;4.15;;;;;;;;;;5037495;28;20180;-52
2024/01/18 07:14:00;;;;;;;13.07;4.75;;;;;;;;;;5017714;28;20064;-54
2024/01/18 07:16:27;;;;;;;9.70;4.00;;;;;;;;;;5023142;28;20057;-52
2024/01/18 07:18:55;;;;;;;12.10;4.25;;;;;;;;;;5034190;28;20117;-54
2024/01/18 07:21:22;;;;;;;11.48;4.65;;;;;;;;;;5028639;28;20057;-55
2024/01/18 07:23:49;;;;;;;10.25;4.70;;;;;;;;;;5017251;28;20061;-53
2024/01/18 07:26:16;;;;;;;13.75;3.80;;;;;;;;;;5031472;28;20139;-50
2024/01/18 07:28:42;;;;;;;10.23;4.03;;;;;;;;;;5037318;28;20049;-52
2024/01/18 07:31:09;;;;;;;9.30;3.50;;;;;;;;;;5040110;28;20155;-52
2024/01/18 07:33:37;;;;;;;10.40;4.20;;;;;;;;;;5013925;28;20041;-52
2024/01/18 07:36:08;;;;;;;10.00;3.75;;;;;;;;;;5018265;28;20072;-54
2024/01/18 07:38:34;;;;;;;13.30;4.05;;;;;;;;;;5034611;28;20056;-52
2024/01/18 07:41:02;;;;;;;11.52;4.35;;;;;;;;;;5036399;28;20076;-54
2024/01/18 07:43:31;;;;;;;10.30;4.45;;;;;;;;;;5020081;28;20037;-54
2024/01/18 07:45:58;;;;;;;10.77;4.35;;;;;;;;;;5008921;28;20041;-53
2024/01/18 07:48:25;;;;;;;9.60;4.28;;;;;;;;;;5032183;28;20052;-52
2024/01/18 07:50:51;;;;;;;13.23;4.57;;;;;;;;;;5033426;28;20049;-54
2024/01/18 07:53:20;;;;;;;12.85;4.38;;;;;;;;;;5031441;28;20072;-52
2024/01/18 07:55:47;;;;;;;9.40;4.05;;;;;;;;;;5019801;28;20136;-53
2024/01/18 07:58:14;;;;;;;13.98;4.32;;;;;;;;;;5035127;28;20045;-51
2024/01/18 08:00:43;;;;;;;14.20;5.03;;;;;;;;;;5034117;28;20053;-53
2024/01/18 08:03:10;;;;;;;13.20;5.05;;;;;;;;;;5035309;28;20049;-50
2024/01/18 08:05:39;;;;;;;12.02;4.53;;;;;;;;;;5024229;28;20067;-52
2024/01/18 08:08:06;;;;;;;;;;;;;;;;;;5033540;28;20154;-52
2024/01/18 08:10:34;;;;;;;9.98;3.03;;;;;;;;;;5032510;28;19951;-53
2024/01/18 08:13:02;;;;;;;;;;;;;;;;;;5039640;28;20049;-52
2024/01/18 08:15:32;;;;;;;7.35;2.40;;;;;;;;;;5031673;28;19925;-51
2024/01/18 08:17:58;;;;;;;11.82;4.10;;;;;;;;;;5025323;28;20061;-54
2024/01/18 08:20:25;;;;;;;11.15;4.20;;;;;;;;;;4913278;28;20061;-54
2024/01/18 08:22:52;;;;;;;9.00;3.88;;;;;;;;;;5023909;28;20053;-51
2024/01/18 08:25:19;;;;;;;10.90;4.88;;;;;;;;;;5034337;28;20048;-51
2024/01/18 08:27:47;;;;;;;12.98;4.55;;;;;;;;;;5034462;28;20181;-52
2024/01/18 08:30:14;;;;;;;11.73;4.18;;;;;;;;;;5014683;28;20056;-54
2024/01/18 08:32:44;;;;;;;9.38;4.15;;;;;;;;;;5026651;28;20064;-54
2024/01/18 08:35:14;;;;;;;11.65;4.60;;;;;;;;;;5046924;28;20061;-53
2024/01/18 08:37:41;;;;;;;14.13;3.92;;;;;;;;;;5033779;28;20060;-52
2024/01/18 08:40:09;;;;;;;13.52;4.90;;;;;;;;;;5011733;28;20073;-52
2024/01/18 08:42:41;;;;;;;13.25;4.65;;;;;;;;;;5011331;28;20280;-56
2024/01/18 08:45:10;;;;;;;13.57;4.15;;;;;;;;;;5004780;28;20161;-53
2024/01/18 08:47:37;;;;;;;11.93;4.47;;;;;;;;;;5001545;28;20062;-52
2024/01/18 08:50:06;;;;;;;12.45;4.65;;;;;;;;;;5000670;28;20124;-55
2024/01/18 08:52:34;;;;;;;10.82;4.55;;;;;;;;;;5028520;28;20052;-51
2024/01/18 08:55:13;;;;;;;12.73;4.72;;;;;;;;;;5023433;28;20079;-49
2024/01/18 08:57:40;;;;;;;10.63;3.75;;;;;;;;;;5035460;28;20044;-53
2024/01/18 09:00:13;;;;;;;10.55;4.28;;;;;;;;;;5010054;28;20059;-55
2024/01/18 09:02:40;;;;;;;9.13;4.25;;;;;;;;;;5028074;28;20110;-55
2024/01/18 09:05:08;;;;;;;12.40;4.90;;;;;;;;;;5032289;28;20048;-52
2024/01/18 09:07:35;;;;;;;10.85;4.30;;;;;;;;;;5029452;28;20048;-53
2024/01/18 09:10:03;;;;;;;8.43;3.65;;;;;;;;;;5026596;28;20088;-56
2024/01/18 09:12:30;;;;;;;10.93;4.35;;;;;;;;;;5031414;28;20049;-55
2024/01/18 09:14:58;;;;;;;10.65;4.32;;;;;;;;;;5018802;28;20049;-56
2024/01/18 09:17:26;;;;;;;;;;;;;;;;;;5030504;28;20061;-53
2024/01/18 09:19:53;;;;;;;8.90;2.95;;;;;;;;;;5007498;28;19931;-52
2024/01/18 09:22:22;;;;;;;11.45;4.30;;;;;;;;;;5027453;28;20112;-55
2024/01/18 09:24:50;;;;;;;11.35;4.22;;;;;;;;;;5030436;28;20072;-51
2024/01/18 09:27:18;;;;;;;9.60;4.32;;;;;;;;;;5037073;28;20095;-53
2024/01/18 09:29:45;;;;;;;9.40;3.92;;;;;;;;;;5008506;28;20047;-51
2024/01/18 09:32:15;;;;;;;10.60;4.15;;;;;;;;;;5032937;28;20048;-52
2024/01/18 09:34:43;;;;;;;7.72;3.40;;;;;;;;;;5021545;28;20049;-56
2024/01/18 09:37:11;;;;;;;9.20;2.97;;;;;;;;;;5046968;28;20041;-52
2024/01/18 09:39:38;;;;;;;7.10;2.78;;;;;;;;;;5022085;28;20064;-52
2024/01/18 09:42:14;;;;;;;6.75;2.42;;;;;;;;;;5031884;28;20134;-52
2024/01/18 09:44:47;;;;;;;5.65;2.38;;;;;;;;;;5024905;28;20045;-53
2024/01/18 09:47:18;;;;;;;5.70;2.78;;;;;;;;;;5031631;28;20076;-51
2024/01/18 09:49:47;;;;;;;4.97;2.40;;;;;;;;;;5030244;28;20079;-54
2024/01/18 09:52:13;;;;;;;;;;;;;;;;;;5034983;28;20072;-50
2024/01/18 09:54:43;;;;;;;6.13;1.95;;;;;;;;;;5032358;28;19928;-51
2024/01/18 09:57:13;;;;;;;6.15;2.13;;;;;;;;;;5034350;28;20053;-53
2024/01/18 09:59:43;;;;;;;6.28;2.25;;;;;;;;;;5015418;28;20163;-53
2024/01/18 10:02:11;;;;;;;4.45;2.13;;;;;;;;;;5039970;28;20053;-51
2024/01/18 10:04:39;;;;;;;8.10;2.30;;;;;;;;;;5029479;28;20634;-54
2024/01/18 10:07:10;;;;;;;5.05;1.80;;;;;;;;;;5028183;28;20037;-53
2024/01/18 10:09:36;;;;;;;;;;;;;;;;;;4983786;28;20045;-53
2024/01/18 10:12:04;;;;;;;4.55;1.75;;;;;;;;;;5036024;28;19956;-50
2024/01/18 10:14:42;;;;;;;7.55;3.00;;;;;;;;;;5034695;28;20052;-54
2024/01/18 10:17:09;;;;;;;4.20;1.88;;;;;;;;;;5024858;28;20061;-51
2024/01/18 10:19:35;;;;;;;4.75;2.08;;;;;;;;;;5022607;28;20168;-54
2024/01/18 10:22:07;;;;;;;3.72;1.77;;;;;;;;;;5027121;28;20072;-51
2024/01/18 10:24:40;;;;;;;6.15;2.40;;;;;;;;;;5038962;28;20049;-53
2024/01/18 10:27:07;;;;;;;7.30;2.70;;;;;;;;;;5015020;28;20041;-54
2024/01/18 10:29:35;;;;;;;8.07;2.70;;;;;;;;;;5027228;28;20152;-53
2024/01/18 10:32:03;;;;;;;5.10;2.53;;;;;;;;;;5025475;28;20056;-51
2024/01/18 10:34:34;;;;;;;7.65;2.45;;;;;;;;;;5022073;28;20056;-52
2024/01/18 10:37:01;;;;;;;6.00;2.35;;;;;;;;;;5045797;28;20055;-56
2024/01/18 10:39:40;;;;;;;4.43;2.00;;;;;;;;;;5055762;28;20111;-51
2024/01/18 10:42:07;;;;;;;;;;;;;;;;;;5033383;28;20045;-55
2024/01/18 10:44:45;;;;;;;5.10;1.70;;;;;;;;;;5058218;28;20247;-55
2024/01/18 10:47:13;;;;;;;3.38;1.70;;;;;;;;;;5030646;28;20063;-53
2024/01/18 10:49:42;;;;;;;6.43;2.40;;;;;;;;;;5021407;28;20519;-51
2024/01/18 10:52:11;;;;;;;4.82;1.98;;;;;;;;;;5039297;28;20099;-54
2024/01/18 10:54:40;;;;;;;4.47;2.05;;;;;;;;;;5024580;28;20052;-54
2024/01/18 10:57:08;;;;;;;5.10;1.80;;;;;;;;;;5030064;28;20049;-54
2024/01/18 10:59:37;;;;;;;7.30;2.05;;;;;;;;;;4980360;28;20056;-53
2024/01/18 11:02:06;;;;;;;4.47;2.03;;;;;;;;;;5028080;28;20041;-53
2024/01/18 11:04:32;;;;;;;;;;;;;;;;;;5032029;28;20052;-55
2024/01/18 11:07:03;;;;;;;3.85;1.60;;;;;;;;;;5027009;28;19925;-56
2024/01/18 11:09:31;;;;;;;5.05;2.10;;;;;;;;;;5008406;28;20052;-54
2024/01/18 11:12:00;;;;;;;5.72;1.85;;;;;;;;;;5021342;28;20057;-55
2024/01/18 11:14:28;;;;;;;5.45;2.22;;;;;;;;;;5017454;28;20041;-56
2024/01/18 11:16:59;;;;;;;5.75;1.98;;;;;;;;;;5020388;28;20172;-52
2024/01/18 11:19:44;;;;;;;9.57;2.15;;;;;;;;;;5016613;28;20064;-57
2024/01/18 11:22:12;;;;;;;3.40;1.75;;;;;;;;;;5031748;28;20064;-53
2024/01/18 11:24:42;;;;;;;4.18;1.77;;;;;;;;;;5024235;28;20045;-56
2024/01/18 11:27:21;;;;;;;3.63;1.95;;;;;;;;;;5021354;28;20041;-57
2024/01/18 11:29:49;;;;;;;7.03;2.30;;;;;;;;;;5025545;28;20049;-54
2024/01/18 11:32:18;;;;;;;6.00;2.45;;;;;;;;;;5035779;28;20049;-58
2024/01/18 11:34:47;;;;;;;9.00;2.53;;;;;;;;;;5028447;28;20041;-57
2024/01/18 11:37:18;;;;;;;7.20;2.28;;;;;;;;;;5032606;28;20061;-54
2024/01/18 11:39:59;;;;;;;4.97;2.03;;;;;;;;;;5007535;28;20057;-55
2024/01/18 11:42:31;;;;;;;3.60;1.70;;;;;;;;;;5023530;28;20073;-58
2024/01/18 11:45:05;;;;;;;4.65;2.25;;;;;;;;;;5023805;28;20081;-56
2024/01/18 11:47:33;;;;;;;6.68;2.55;;;;;;;;;;5029801;28;20048;-57
2024/01/18 11:50:05;;;;;;;7.03;2.58;;;;;;;;;;5014749;28;20060;-58
2024/01/18 11:52:35;;;;;;;3.53;1.58;;;;;;;;;;5031402;28;20159;-54
2024/01/18 11:55:07;;;;;;;6.78;2.00;;;;;;;;;;5032694;28;20053;-56
2024/01/18 11:57:38;;;;;;;6.85;2.17;;;;;;;;;;5018410;28;20037;-56
2024/01/18 12:00:07;;;;;;;7.82;2.25;;;;;;;;;;4976335;28;20483;-58
2024/01/18 12:02:47;;;;;;;2.90;1.15;;;;;;;;;;5022279;28;20053;-58
2024/01/18 12:05:16;;;;;;;2.13;1.15;;;;;;;;;;5030022;28;20059;-57
2024/01/18 12:07:44;;;;;;;1.55;0.85;;;;;;;;;;5053897;28;20037;-56
2024/01/18 12:10:14;;;;;;;7.22;1.23;;;;;;;;;;5013528;28;20051;-58
2024/01/18 12:12:46;;;;;;;3.42;1.15;;;;;;;;;;5027215;28;20049;-59
2024/01/18 12:15:18;;;;;;;0.65;0.65;;;;;;;;;;5035878;28;20049;-56
2024/01/18 12:17:48;;;;;;;3.35;1.45;;;;;;;;;;5034914;28;20044;-55
2024/01/18 12:20:16;;;;;;;3.58;1.30;;;;;;;;;;4984609;28;20053;-57
2024/01/18 12:22:45;;;;;;;;;;;;;;;;;;5032077;28;20068;-58
2024/01/18 12:25:14;;;;;;;;;;;;;;;;;;5037969;28;19971;-58
2024/01/18 12:27:45;;;;;;;1.52;0.70;;;;;;;;;;5037989;28;20020;-58
2024/01/18 12:30:15;;;;;;;2.08;1.05;;;;;;;;;;5022548;28;20104;-59
2024/01/18 12:32:43;;;;;;;1.38;0.50;;;;;;;;;;5031443;28;20068;-59
2024/01/18 12:35:11;;;;;;;3.03;1.10;;;;;;;;;;5036456;28;20098;-56
2024/01/18 12:37:42;;;;;;;4.38;0.70;;;;;;;;;;5029586;28;20063;-59
2024/01/18 12:40:12;;;;;;;1.13;0.70;;;;;;;;;;5017673;28;20107;-57
2024/01/18 12:42:49;;;;;;;1.45;0.50;;;;;;;;;;5020335;28;20077;-57
2024/01/18 12:45:17;;;;;;;1.92;0.80;;;;;;;;;;5030970;28;20143;-56
2024/01/18 12:47:46;;;;;;;3.40;1.02;;;;;;;;;;5026943;28;20048;-58
2024/01/18 12:50:17;;;;;;;1.02;0.73;;;;;;;;;;5011490;28;20049;-59
2024/01/18 12:52:44;;;;;;;1.42;0.77;;;;;;;;;;5015842;28;20044;-57
2024/01/18 12:55:11;;;;;;;4.20;1.30;;;;;;;;;;5036338;28;20045;-59
2024/01/18 12:57:39;;;;;;;3.55;0.73;;;;;;;;;;5021837;28;20056;-56
2024/01/18 13:00:16;;;;;;;0.65;0.57;;;;;;;;;;5016711;28;20135;-58
2024/01/18 13:02:43;;;;;;;1.67;0.85;;;;;;;;;;5022816;28;20140;-60
2024/01/18 13:05:14;;;;;;;1.95;0.85;;;;;;;;;;5035298;28;20061;-56
2024/01/18 13:07:41;;;;;;;1.63;0.88;;;;;;;;;;5036939;28;20328;-58
2024/01/18 13:10:13;;;;;;;1.52;0.57;;;;;;;;;;5010039;28;20058;-57
2024/01/18 13:12:44;;;;;;;1.42;0.80;;;;;;;;;;5021823;28;20073;-59
2024/01/18 13:15:17;;;;;;;3.88;0.90;;;;;;;;;;5019402;28;20050;-58
2024/01/18 13:17:47;;;;;;;2.17;0.55;;;;;;;;;;5034216;28;20045;-59
2024/01/18 13:20:18;;;;;;;0.88;0.38;;;;;;;;;;4983817;28;20330;-60
2024/01/18 13:22:45;;;;;;;2.92;0.73;;;;;;;;;;5020541;28;20041;-59
2024/01/18 13:25:12;;;;;;;1.65;0.60;;;;;;;;;;5031073;28;20111;-59
2024/01/18 13:27:39;;;;;;;2.03;0.80;;;;;;;;;;5031470;28;20057;-59
2024/01/18 13:30:07;;;;;;;0.90;0.65;;;;;;;;;;5007313;28;20094;-57
2024/01/18 13:32:37;;;;;;;1.42;0.60;;;;;;;;;;5032379;28;20076;-60
2024/01/18 13:35:07;;;;;;;3.42;1.45;;;;;;;;;;5023799;28;20083;-59
2024/01/18 13:37:37;;;;;;;13.90;3.38;;;;;;;;;;5028953;28;20103;-59
2024/01/18 13:40:09;;;;;;;3.42;1.10;;;;;;;;;;5014468;28;20059;-59
2024/01/18 13:42:41;;;;;;;2.00;0.90;;;;;;;;;;5031751;28;20064;-60
2024/01/18 13:45:15;;;;;;;1.80;0.80;;;;;;;;;;5021036;28;20053;-60
2024/01/18 13:47:43;;;;;;;5.18;0.95;;;;;;;;;;5032136;28;20126;-60
2024/01/18 13:50:44;;;;;;;1.80;0.90;;;;;;;;;;4996587;28;20054;-60
2024/01/18 13:53:15;;;;;;;3.42;0.60;;;;;;;;;;5014051;28;20106;-60
2024/01/18 13:55:43;;;;;;;2.05;0.73;;;;;;;;;;5032531;28;20131;-60
2024/01/18 13:58:11;;;;;;;1.08;0.68;;;;;;;;;;5033924;28;20049;-60
2024/01/18 14:00:44;;;;;;;1.75;0.52;;;;;;;;;;5010590;28;20121;-60
2024/01/18 14:03:17;;;;;;;0.55;0.40;;;;;;;;;;5006617;28;20057;-60
2024/01/18 14:05:47;;;;;;;6.50;0.43;;;;;;;;;;5029864;28;20044;-60
2024/01/18 14:08:21;;;;;;;1.42;0.70;;;;;;;;;;5024901;28;20041;-60
2024/01/18 14:10:48;;;;;;;1.25;0.57;;;;;;;;;;4980640;28;20099;-60
2024/01/18 14:13:20;;;;;;;2.38;0.73;;;;;;;;;;5040269;28;20077;-59
2024/01/18 14:15:54;;;;;;;3.10;0.70;;;;;;;;;;5035140;28;20051;-61
2024/01/18 14:18:22;;;;;;;0.65;0.50;;;;;;;;;;5025524;28;20054;-60
2024/01/18 14:20:57;;;;;;;1.25;0.70;;;;;;;;;;4959456;28;20086;-60
2024/01/18 14:23:26;;;;;;;2.05;0.85;;;;;;;;;;5011670;28;20056;-60
2024/01/18 14:25:55;;;;;;;0.80;0.57;;;;;;;;;;5010960;28;20045;-60
2024/01/18 14:28:23;;;;;;;0.90;0.57;;;;;;;;;;5017353;28;20139;-60
2024/01/18 14:30:52;;;;;;;1.45;0.73;;;;;;;;;;4985876;28;20049;-61
2024/01/18 14:33:19;;;;;;;7.05;0.70;;;;;;;;;;5030247;28;20056;-60
2024/01/18 14:35:47;;;;;;;0.30;0.30;;;;;;;;;;5030518;28;20068;-60
2024/01/18 14:38:34;;;;;;;0.57;0.50;;;;;;;;;;5026889;28;20170;-61
2024/01/18 14:41:01;;;;;;;1.42;0.80;;;;;;;;;;5007258;28;20053;-60
2024/01/18 14:43:28;;;;;;;2.05;0.77;;;;;;;;;;5033641;28;20099;-59
2024/01/18 14:45:59;;;;;;;2.50;0.63;;;;;;;;;;5028842;28;20045;-60